sensor_id;sensor_type;location;lat;lon;timestamp;P1;durP1;ratioP1;P2;durP2;ratioP2
29238;SDS011;16267;48.194;11.546;2023-02-04T00:01:51;2.97;;;1.50;;
29238;SDS011;16267;48.194;11.546;2023-02-04T00:04:16;1.80;;;1.27;;
29238;SDS011;16267;48.194;11.546;2023-02-04T00:06:42;3.38;;;1.27;;
29238;SDS011;16267;48.194;11.546;2023-02-04T00:09:08;4.15;;;1.55;;
29238;SDS011;16267;48.194;11.546;2023-02-04T00:11:33;3.40;;;1.38;;
29238;SDS011;16267;48.194;11.546;2023-02-04T00:13:59;2.20;;;1.40;;
29238;SDS011;16267;48.194;11.546;2023-02-04T00:16:25;2.53;;;1.42;;
29238;SDS011;16267;48.194;11.546;2023-02-04T00:18:51;4.45;;;1.45;;
29238;SDS011;16267;48.194;11.546;2023-02-04T00:21:16;3.35;;;1.40;;
29238;SDS011;16267;48.194;11.546;2023-02-04T00:23:42;1.75;;;1.40;;
29238;SDS011;16267;48.194;11.546;2023-02-04T00:26:08;5.13;;;1.48;;
29238;SDS011;16267;48.194;11.546;2023-02-04T00:28:34;2.38;;;1.50;;
29238;SDS011;16267;48.194;11.546;2023-02-04T00:31:00;2.55;;;1.40;;
29238;SDS011;16267;48.194;11.546;2023-02-04T00:33:25;2.10;;;1.20;;
29238;SDS011;16267;48.194;11.546;2023-02-04T00:35:51;2.00;;;1.40;;
29238;SDS011;16267;48.194;11.546;2023-02-04T00:38:17;2.40;;;1.40;;
29238;SDS011;16267;48.194;11.546;2023-02-04T00:40:42;5.53;;;1.45;;
29238;SDS011;16267;48.194;11.546;2023-02-04T00:43:08;5.68;;;1.50;;
29238;SDS011;16267;48.194;11.546;2023-02-04T00:45:34;4.57;;;1.55;;
29238;SDS011;16267;48.194;11.546;2023-02-04T00:48:00;2.53;;;1.60;;
29238;SDS011;16267;48.194;11.546;2023-02-04T00:50:25;3.85;;;1.50;;
29238;SDS011;16267;48.194;11.546;2023-02-04T00:52:52;3.95;;;1.40;;
29238;SDS011;16267;48.194;11.546;2023-02-04T00:55:18;2.33;;;1.50;;
29238;SDS011;16267;48.194;11.546;2023-02-04T00:57:44;1.75;;;1.42;;
29238;SDS011;16267;48.194;11.546;2023-02-04T01:00:14;5.78;;;1.33;;
29238;SDS011;16267;48.194;11.546;2023-02-04T01:02:41;1.80;;;1.40;;
29238;SDS011;16267;48.194;11.546;2023-02-04T01:05:07;2.08;;;1.30;;
29238;SDS011;16267;48.194;11.546;2023-02-04T01:07:34;2.10;;;1.38;;
29238;SDS011;16267;48.194;11.546;2023-02-04T01:10:00;1.55;;;1.30;;
29238;SDS011;16267;48.194;11.546;2023-02-04T01:12:27;4.13;;;1.23;;
29238;SDS011;16267;48.194;11.546;2023-02-04T01:14:53;1.90;;;1.48;;
29238;SDS011;16267;48.194;11.546;2023-02-04T01:17:19;1.95;;;1.40;;
29238;SDS011;16267;48.194;11.546;2023-02-04T01:19:45;2.83;;;1.42;;
29238;SDS011;16267;48.194;11.546;2023-02-04T01:22:12;3.58;;;1.20;;
29238;SDS011;16267;48.194;11.546;2023-02-04T01:24:38;2.85;;;1.45;;
29238;SDS011;16267;48.194;11.546;2023-02-04T01:27:04;2.83;;;1.83;;
29238;SDS011;16267;48.194;11.546;2023-02-04T01:29:30;4.82;;;1.33;;
29238;SDS011;16267;48.194;11.546;2023-02-04T01:31:56;3.33;;;1.60;;
29238;SDS011;16267;48.194;11.546;2023-02-04T01:34:22;6.43;;;1.10;;
29238;SDS011;16267;48.194;11.546;2023-02-04T01:36:49;3.28;;;1.20;;
29238;SDS011;16267;48.194;11.546;2023-02-04T01:39:16;4.35;;;1.30;;
29238;SDS011;16267;48.194;11.546;2023-02-04T01:41:42;8.52;;;1.17;;
29238;SDS011;16267;48.194;11.546;2023-02-04T01:44:07;3.92;;;1.30;;
29238;SDS011;16267;48.194;11.546;2023-02-04T01:46:33;6.32;;;1.20;;
29238;SDS011;16267;48.194;11.546;2023-02-04T01:49:02;6.70;;;1.70;;
29238;SDS011;16267;48.194;11.546;2023-02-04T01:51:30;5.60;;;1.70;;
29238;SDS011;16267;48.194;11.546;2023-02-04T01:53:57;6.68;;;2.03;;
29238;SDS011;16267;48.194;11.546;2023-02-04T01:56:24;8.07;;;2.03;;
29238;SDS011;16267;48.194;11.546;2023-02-04T01:58:52;9.18;;;1.77;;
29238;SDS011;16267;48.194;11.546;2023-02-04T02:04:13;6.55;;;2.60;;
29238;SDS011;16267;48.194;11.546;2023-02-04T02:06:46;6.68;;;2.00;;
29238;SDS011;16267;48.194;11.546;2023-02-04T02:09:19;4.85;;;1.55;;
29238;SDS011;16267;48.194;11.546;2023-02-04T02:11:45;5.90;;;1.80;;
29238;SDS011;16267;48.194;11.546;2023-02-04T02:14:11;6.88;;;2.40;;
29238;SDS011;16267;48.194;11.546;2023-02-04T02:16:37;8.52;;;1.80;;
29238;SDS011;16267;48.194;11.546;2023-02-04T02:19:03;6.75;;;1.70;;
29238;SDS011;16267;48.194;11.546;2023-02-04T02:21:44;7.65;;;1.90;;
29238;SDS011;16267;48.194;11.546;2023-02-04T02:26:56;10.43;;;2.00;;
29238;SDS011;16267;48.194;11.546;2023-02-04T02:29:26;9.77;;;2.65;;
29238;SDS011;16267;48.194;11.546;2023-02-04T02:31:53;11.15;;;2.45;;
29238;SDS011;16267;48.194;11.546;2023-02-04T02:34:23;12.52;;;2.40;;
29238;SDS011;16267;48.194;11.546;2023-02-04T02:36:52;10.07;;;2.38;;
29238;SDS011;16267;48.194;11.546;2023-02-04T02:39:18;17.38;;;2.55;;
29238;SDS011;16267;48.194;11.546;2023-02-04T02:41:45;14.70;;;2.83;;
29238;SDS011;16267;48.194;11.546;2023-02-04T02:44:11;12.48;;;3.05;;
29238;SDS011;16267;48.194;11.546;2023-02-04T02:46:38;14.45;;;2.65;;
29238;SDS011;16267;48.194;11.546;2023-02-04T02:49:05;10.98;;;2.40;;
29238;SDS011;16267;48.194;11.546;2023-02-04T02:51:31;14.07;;;2.20;;
29238;SDS011;16267;48.194;11.546;2023-02-04T02:53:57;21.33;;;3.30;;
29238;SDS011;16267;48.194;11.546;2023-02-04T02:56:22;21.90;;;3.25;;
29238;SDS011;16267;48.194;11.546;2023-02-04T02:58:48;14.10;;;2.80;;
29238;SDS011;16267;48.194;11.546;2023-02-04T03:01:14;11.85;;;2.75;;
29238;SDS011;16267;48.194;11.546;2023-02-04T03:03:42;13.48;;;3.08;;
29238;SDS011;16267;48.194;11.546;2023-02-04T03:08:41;15.90;;;3.08;;
29238;SDS011;16267;48.194;11.546;2023-02-04T03:11:08;16.08;;;2.80;;
29238;SDS011;16267;48.194;11.546;2023-02-04T03:13:34;14.23;;;2.78;;
29238;SDS011;16267;48.194;11.546;2023-02-04T03:16:01;14.13;;;2.67;;
29238;SDS011;16267;48.194;11.546;2023-02-04T03:18:28;17.20;;;4.30;;
29238;SDS011;16267;48.194;11.546;2023-02-04T03:20:55;16.25;;;2.90;;
29238;SDS011;16267;48.194;11.546;2023-02-04T03:23:22;17.73;;;3.40;;
29238;SDS011;16267;48.194;11.546;2023-02-04T03:25:51;15.80;;;3.08;;
29238;SDS011;16267;48.194;11.546;2023-02-04T03:28:17;11.55;;;3.03;;
29238;SDS011;16267;48.194;11.546;2023-02-04T03:30:43;27.55;;;3.92;;
29238;SDS011;16267;48.194;11.546;2023-02-04T03:33:17;14.70;;;2.78;;
29238;SDS011;16267;48.194;11.546;2023-02-04T03:35:43;13.55;;;3.28;;
29238;SDS011;16267;48.194;11.546;2023-02-04T03:38:09;19.48;;;3.90;;
29238;SDS011;16267;48.194;11.546;2023-02-04T03:40:34;12.52;;;2.88;;
29238;SDS011;16267;48.194;11.546;2023-02-04T03:43:00;13.88;;;3.80;;
29238;SDS011;16267;48.194;11.546;2023-02-04T03:45:26;19.35;;;3.67;;
29238;SDS011;16267;48.194;11.546;2023-02-04T03:47:51;24.83;;;4.55;;
29238;SDS011;16267;48.194;11.546;2023-02-04T03:50:17;22.73;;;3.90;;
29238;SDS011;16267;48.194;11.546;2023-02-04T03:52:43;15.27;;;3.58;;
29238;SDS011;16267;48.194;11.546;2023-02-04T03:55:09;16.20;;;3.38;;
29238;SDS011;16267;48.194;11.546;2023-02-04T03:57:35;18.33;;;3.47;;
29238;SDS011;16267;48.194;11.546;2023-02-04T04:00:01;16.05;;;3.10;;
29238;SDS011;16267;48.194;11.546;2023-02-04T04:02:26;17.90;;;3.90;;
29238;SDS011;16267;48.194;11.546;2023-02-04T04:04:52;15.13;;;3.47;;
29238;SDS011;16267;48.194;11.546;2023-02-04T04:07:18;19.17;;;3.70;;
29238;SDS011;16267;48.194;11.546;2023-02-04T04:09:43;17.15;;;3.20;;
29238;SDS011;16267;48.194;11.546;2023-02-04T04:12:09;15.50;;;3.10;;
29238;SDS011;16267;48.194;11.546;2023-02-04T04:14:35;17.30;;;3.08;;
29238;SDS011;16267;48.194;11.546;2023-02-04T04:17:01;12.27;;;3.03;;
29238;SDS011;16267;48.194;11.546;2023-02-04T04:19:26;14.57;;;3.28;;
29238;SDS011;16267;48.194;11.546;2023-02-04T04:21:52;15.40;;;3.20;;
29238;SDS011;16267;48.194;11.546;2023-02-04T04:24:18;17.05;;;3.00;;
29238;SDS011;16267;48.194;11.546;2023-02-04T04:26:43;14.55;;;2.90;;
29238;SDS011;16267;48.194;11.546;2023-02-04T04:29:09;19.23;;;3.53;;
29238;SDS011;16267;48.194;11.546;2023-02-04T04:31:35;23.38;;;3.70;;
29238;SDS011;16267;48.194;11.546;2023-02-04T04:34:01;12.20;;;2.92;;
29238;SDS011;16267;48.194;11.546;2023-02-04T04:36:26;15.40;;;3.85;;
29238;SDS011;16267;48.194;11.546;2023-02-04T04:38:52;13.00;;;3.00;;
29238;SDS011;16267;48.194;11.546;2023-02-04T04:41:18;18.55;;;3.45;;
29238;SDS011;16267;48.194;11.546;2023-02-04T04:43:43;21.02;;;3.90;;
29238;SDS011;16267;48.194;11.546;2023-02-04T04:46:09;22.35;;;3.08;;
29238;SDS011;16267;48.194;11.546;2023-02-04T04:48:35;15.38;;;4.07;;
29238;SDS011;16267;48.194;11.546;2023-02-04T04:51:01;25.17;;;4.00;;
29238;SDS011;16267;48.194;11.546;2023-02-04T04:53:27;16.85;;;3.42;;
29238;SDS011;16267;48.194;11.546;2023-02-04T04:55:53;17.88;;;3.30;;
29238;SDS011;16267;48.194;11.546;2023-02-04T04:58:18;12.05;;;2.58;;
29238;SDS011;16267;48.194;11.546;2023-02-04T05:00:44;20.95;;;4.20;;
29238;SDS011;16267;48.194;11.546;2023-02-04T05:03:10;23.45;;;3.28;;
29238;SDS011;16267;48.194;11.546;2023-02-04T05:05:35;11.50;;;2.97;;
29238;SDS011;16267;48.194;11.546;2023-02-04T05:08:05;14.82;;;3.47;;
29238;SDS011;16267;48.194;11.546;2023-02-04T05:10:36;21.02;;;3.67;;
29238;SDS011;16267;48.194;11.546;2023-02-04T05:13:06;20.25;;;3.58;;
29238;SDS011;16267;48.194;11.546;2023-02-04T05:15:33;15.95;;;3.28;;
29238;SDS011;16267;48.194;11.546;2023-02-04T05:17:59;12.25;;;3.20;;
29238;SDS011;16267;48.194;11.546;2023-02-04T05:20:24;23.80;;;3.47;;
29238;SDS011;16267;48.194;11.546;2023-02-04T05:22:50;21.83;;;3.63;;
29238;SDS011;16267;48.194;11.546;2023-02-04T05:25:16;17.73;;;3.05;;
29238;SDS011;16267;48.194;11.546;2023-02-04T05:27:43;19.13;;;3.92;;
29238;SDS011;16267;48.194;11.546;2023-02-04T05:30:10;19.40;;;3.10;;
29238;SDS011;16267;48.194;11.546;2023-02-04T05:32:37;17.55;;;3.33;;
29238;SDS011;16267;48.194;11.546;2023-02-04T05:35:03;23.70;;;3.58;;
29238;SDS011;16267;48.194;11.546;2023-02-04T05:37:30;14.60;;;3.10;;
29238;SDS011;16267;48.194;11.546;2023-02-04T05:39:56;15.95;;;3.58;;
29238;SDS011;16267;48.194;11.546;2023-02-04T05:42:22;17.17;;;2.97;;
29238;SDS011;16267;48.194;11.546;2023-02-04T05:44:47;10.50;;;3.60;;
29238;SDS011;16267;48.194;11.546;2023-02-04T05:47:13;16.30;;;3.03;;
29238;SDS011;16267;48.194;11.546;2023-02-04T05:49:39;26.15;;;4.53;;
29238;SDS011;16267;48.194;11.546;2023-02-04T05:52:05;14.82;;;2.80;;
29238;SDS011;16267;48.194;11.546;2023-02-04T05:54:31;17.73;;;3.50;;
29238;SDS011;16267;48.194;11.546;2023-02-04T05:56:57;23.90;;;3.55;;
29238;SDS011;16267;48.194;11.546;2023-02-04T05:59:22;15.18;;;2.90;;
29238;SDS011;16267;48.194;11.546;2023-02-04T06:01:48;14.50;;;3.15;;
29238;SDS011;16267;48.194;11.546;2023-02-04T06:04:14;16.00;;;4.07;;
29238;SDS011;16267;48.194;11.546;2023-02-04T06:06:41;19.90;;;3.45;;
29238;SDS011;16267;48.194;11.546;2023-02-04T06:09:07;18.00;;;3.40;;
29238;SDS011;16267;48.194;11.546;2023-02-04T06:11:33;15.88;;;3.03;;
29238;SDS011;16267;48.194;11.546;2023-02-04T06:13:59;16.52;;;2.55;;
29238;SDS011;16267;48.194;11.546;2023-02-04T06:16:25;13.63;;;3.30;;
29238;SDS011;16267;48.194;11.546;2023-02-04T06:18:51;10.27;;;2.75;;
29238;SDS011;16267;48.194;11.546;2023-02-04T06:21:17;14.38;;;3.55;;
29238;SDS011;16267;48.194;11.546;2023-02-04T06:23:43;20.88;;;4.57;;
29238;SDS011;16267;48.194;11.546;2023-02-04T06:26:09;23.52;;;4.47;;
29238;SDS011;16267;48.194;11.546;2023-02-04T06:28:35;22.20;;;3.88;;
29238;SDS011;16267;48.194;11.546;2023-02-04T06:31:01;23.33;;;4.18;;
29238;SDS011;16267;48.194;11.546;2023-02-04T06:33:27;20.33;;;3.67;;
29238;SDS011;16267;48.194;11.546;2023-02-04T06:35:56;16.00;;;3.30;;
29238;SDS011;16267;48.194;11.546;2023-02-04T06:38:21;20.73;;;3.65;;
29238;SDS011;16267;48.194;11.546;2023-02-04T06:40:47;15.10;;;2.80;;
29238;SDS011;16267;48.194;11.546;2023-02-04T06:43:17;22.38;;;2.97;;
29238;SDS011;16267;48.194;11.546;2023-02-04T06:45:44;14.23;;;3.15;;
29238;SDS011;16267;48.194;11.546;2023-02-04T06:48:09;15.82;;;3.10;;
29238;SDS011;16267;48.194;11.546;2023-02-04T06:50:35;14.45;;;3.33;;
29238;SDS011;16267;48.194;11.546;2023-02-04T06:53:01;14.65;;;3.30;;
29238;SDS011;16267;48.194;11.546;2023-02-04T06:55:28;21.95;;;4.28;;
29238;SDS011;16267;48.194;11.546;2023-02-04T06:57:54;23.25;;;4.25;;
29238;SDS011;16267;48.194;11.546;2023-02-04T07:00:20;16.63;;;3.08;;
29238;SDS011;16267;48.194;11.546;2023-02-04T07:02:46;15.07;;;3.25;;
29238;SDS011;16267;48.194;11.546;2023-02-04T07:05:12;19.65;;;4.47;;
29238;SDS011;16267;48.194;11.546;2023-02-04T07:07:38;21.50;;;3.42;;
29238;SDS011;16267;48.194;11.546;2023-02-04T07:10:03;18.70;;;4.13;;
29238;SDS011;16267;48.194;11.546;2023-02-04T07:12:29;18.05;;;3.50;;
29238;SDS011;16267;48.194;11.546;2023-02-04T07:14:55;11.63;;;3.40;;
29238;SDS011;16267;48.194;11.546;2023-02-04T07:17:21;17.20;;;3.25;;
29238;SDS011;16267;48.194;11.546;2023-02-04T07:19:47;13.48;;;3.10;;
29238;SDS011;16267;48.194;11.546;2023-02-04T07:22:13;15.18;;;2.90;;
29238;SDS011;16267;48.194;11.546;2023-02-04T07:24:39;18.02;;;3.65;;
29238;SDS011;16267;48.194;11.546;2023-02-04T07:27:05;17.75;;;3.83;;
29238;SDS011;16267;48.194;11.546;2023-02-04T07:29:31;14.90;;;2.83;;
29238;SDS011;16267;48.194;11.546;2023-02-04T07:31:57;16.58;;;2.95;;
29238;SDS011;16267;48.194;11.546;2023-02-04T07:34:22;16.95;;;3.35;;
29238;SDS011;16267;48.194;11.546;2023-02-04T07:36:48;17.83;;;3.58;;
29238;SDS011;16267;48.194;11.546;2023-02-04T07:39:14;14.25;;;3.25;;
29238;SDS011;16267;48.194;11.546;2023-02-04T07:41:40;14.27;;;3.08;;
29238;SDS011;16267;48.194;11.546;2023-02-04T07:44:06;17.83;;;2.88;;
29238;SDS011;16267;48.194;11.546;2023-02-04T07:46:31;15.98;;;3.25;;
29238;SDS011;16267;48.194;11.546;2023-02-04T07:48:57;21.80;;;3.67;;
29238;SDS011;16267;48.194;11.546;2023-02-04T07:51:23;10.57;;;2.50;;
29238;SDS011;16267;48.194;11.546;2023-02-04T07:53:49;17.27;;;3.33;;
29238;SDS011;16267;48.194;11.546;2023-02-04T07:56:15;16.60;;;3.42;;
29238;SDS011;16267;48.194;11.546;2023-02-04T07:58:41;17.42;;;2.92;;
29238;SDS011;16267;48.194;11.546;2023-02-04T08:01:07;11.65;;;2.85;;
29238;SDS011;16267;48.194;11.546;2023-02-04T08:03:37;12.32;;;2.63;;
29238;SDS011;16267;48.194;11.546;2023-02-04T08:06:02;21.35;;;3.30;;
29238;SDS011;16267;48.194;11.546;2023-02-04T08:08:28;13.00;;;3.08;;
29238;SDS011;16267;48.194;11.546;2023-02-04T08:10:54;15.68;;;3.38;;
29238;SDS011;16267;48.194;11.546;2023-02-04T08:13:20;20.85;;;3.58;;
29238;SDS011;16267;48.194;11.546;2023-02-04T08:15:45;13.13;;;3.30;;
29238;SDS011;16267;48.194;11.546;2023-02-04T08:18:11;16.42;;;2.70;;
29238;SDS011;16267;48.194;11.546;2023-02-04T08:20:38;16.75;;;2.90;;
29238;SDS011;16267;48.194;11.546;2023-02-04T08:23:04;16.90;;;3.30;;
29238;SDS011;16267;48.194;11.546;2023-02-04T08:25:29;12.25;;;3.08;;
29238;SDS011;16267;48.194;11.546;2023-02-04T08:27:55;13.45;;;3.10;;
29238;SDS011;16267;48.194;11.546;2023-02-04T08:30:21;13.95;;;3.33;;
29238;SDS011;16267;48.194;11.546;2023-02-04T08:32:46;9.80;;;2.80;;
29238;SDS011;16267;48.194;11.546;2023-02-04T08:35:12;15.85;;;3.45;;
29238;SDS011;16267;48.194;11.546;2023-02-04T08:37:38;16.60;;;3.55;;
29238;SDS011;16267;48.194;11.546;2023-02-04T08:40:04;13.82;;;3.40;;
29238;SDS011;16267;48.194;11.546;2023-02-04T08:42:31;11.13;;;3.38;;
29238;SDS011;16267;48.194;11.546;2023-02-04T08:44:58;19.73;;;3.15;;
29238;SDS011;16267;48.194;11.546;2023-02-04T08:47:24;15.07;;;3.17;;
29238;SDS011;16267;48.194;11.546;2023-02-04T08:49:50;17.75;;;3.08;;
29238;SDS011;16267;48.194;11.546;2023-02-04T08:52:16;12.05;;;3.08;;
29238;SDS011;16267;48.194;11.546;2023-02-04T08:54:43;14.93;;;2.75;;
29238;SDS011;16267;48.194;11.546;2023-02-04T08:57:09;12.30;;;2.78;;
29238;SDS011;16267;48.194;11.546;2023-02-04T08:59:34;15.13;;;3.03;;
29238;SDS011;16267;48.194;11.546;2023-02-04T09:02:00;12.70;;;2.97;;
29238;SDS011;16267;48.194;11.546;2023-02-04T09:04:27;17.85;;;2.90;;
29238;SDS011;16267;48.194;11.546;2023-02-04T09:06:53;10.95;;;2.30;;
29238;SDS011;16267;48.194;11.546;2023-02-04T09:09:19;13.00;;;2.83;;
29238;SDS011;16267;48.194;11.546;2023-02-04T09:11:45;13.13;;;2.58;;
29238;SDS011;16267;48.194;11.546;2023-02-04T09:14:11;11.48;;;2.30;;
29238;SDS011;16267;48.194;11.546;2023-02-04T09:16:37;14.27;;;2.60;;
29238;SDS011;16267;48.194;11.546;2023-02-04T09:19:03;12.25;;;2.80;;
29238;SDS011;16267;48.194;11.546;2023-02-04T09:21:30;14.00;;;2.65;;
29238;SDS011;16267;48.194;11.546;2023-02-04T09:23:56;20.00;;;2.92;;
29238;SDS011;16267;48.194;11.546;2023-02-04T09:26:22;18.85;;;3.03;;
29238;SDS011;16267;48.194;11.546;2023-02-04T09:28:48;11.15;;;2.65;;
29238;SDS011;16267;48.194;11.546;2023-02-04T09:31:14;13.65;;;2.83;;
29238;SDS011;16267;48.194;11.546;2023-02-04T09:33:41;7.40;;;1.85;;
29238;SDS011;16267;48.194;11.546;2023-02-04T09:36:07;14.63;;;2.15;;
29238;SDS011;16267;48.194;11.546;2023-02-04T09:38:35;14.30;;;2.65;;
29238;SDS011;16267;48.194;11.546;2023-02-04T09:41:01;15.27;;;2.40;;
29238;SDS011;16267;48.194;11.546;2023-02-04T09:43:33;18.98;;;2.70;;
29238;SDS011;16267;48.194;11.546;2023-02-04T09:46:03;19.42;;;2.78;;
29238;SDS011;16267;48.194;11.546;2023-02-04T09:48:30;15.75;;;3.35;;
29238;SDS011;16267;48.194;11.546;2023-02-04T09:51:04;13.52;;;2.20;;
29238;SDS011;16267;48.194;11.546;2023-02-04T09:53:32;15.40;;;2.85;;
29238;SDS011;16267;48.194;11.546;2023-02-04T09:55:59;17.33;;;3.22;;
29238;SDS011;16267;48.194;11.546;2023-02-04T09:58:26;14.00;;;2.80;;
29238;SDS011;16267;48.194;11.546;2023-02-04T10:00:58;18.38;;;3.33;;
29238;SDS011;16267;48.194;11.546;2023-02-04T10:03:35;16.50;;;3.17;;
29238;SDS011;16267;48.194;11.546;2023-02-04T10:06:10;17.73;;;3.88;;
29238;SDS011;16267;48.194;11.546;2023-02-04T10:08:41;12.32;;;3.05;;
29238;SDS011;16267;48.194;11.546;2023-02-04T10:11:12;11.00;;;3.50;;
29238;SDS011;16267;48.194;11.546;2023-02-04T10:13:46;9.82;;;2.25;;
29238;SDS011;16267;48.194;11.546;2023-02-04T10:16:27;12.40;;;2.78;;
29238;SDS011;16267;48.194;11.546;2023-02-04T10:18:58;6.97;;;2.53;;
29238;SDS011;16267;48.194;11.546;2023-02-04T10:21:28;8.27;;;2.53;;
29238;SDS011;16267;48.194;11.546;2023-02-04T10:23:58;5.43;;;1.38;;
29238;SDS011;16267;48.194;11.546;2023-02-04T10:26:28;5.85;;;1.65;;
29238;SDS011;16267;48.194;11.546;2023-02-04T10:29:06;7.45;;;1.30;;
29238;SDS011;16267;48.194;11.546;2023-02-04T10:31:42;8.95;;;1.65;;
29238;SDS011;16267;48.194;11.546;2023-02-04T10:34:31;7.72;;;2.15;;
29238;SDS011;16267;48.194;11.546;2023-02-04T10:37:18;4.93;;;1.20;;
29238;SDS011;16267;48.194;11.546;2023-02-04T10:39:46;7.63;;;1.40;;
29238;SDS011;16267;48.194;11.546;2023-02-04T10:42:21;7.45;;;1.52;;
29238;SDS011;16267;48.194;11.546;2023-02-04T10:44:52;5.03;;;1.30;;
29238;SDS011;16267;48.194;11.546;2023-02-04T10:47:19;5.70;;;1.25;;
29238;SDS011;16267;48.194;11.546;2023-02-04T10:49:59;5.85;;;1.80;;
29238;SDS011;16267;48.194;11.546;2023-02-04T10:52:41;6.50;;;1.63;;
29238;SDS011;16267;48.194;11.546;2023-02-04T10:55:12;5.32;;;1.98;;
29238;SDS011;16267;48.194;11.546;2023-02-04T10:57:42;4.72;;;1.23;;
29238;SDS011;16267;48.194;11.546;2023-02-04T11:00:21;4.32;;;1.10;;
29238;SDS011;16267;48.194;11.546;2023-02-04T11:03:00;4.85;;;1.25;;
29238;SDS011;16267;48.194;11.546;2023-02-04T11:05:32;4.38;;;1.20;;
29238;SDS011;16267;48.194;11.546;2023-02-04T11:08:00;1.48;;;0.95;;
29238;SDS011;16267;48.194;11.546;2023-02-04T11:10:28;2.55;;;1.00;;
29238;SDS011;16267;48.194;11.546;2023-02-04T11:20:50;5.97;;;0.90;;
29238;SDS011;16267;48.194;11.546;2023-02-04T11:26:05;1.73;;;0.85;;
29238;SDS011;16267;48.194;11.546;2023-02-04T11:28:47;3.63;;;1.20;;
29238;SDS011;16267;48.194;11.546;2023-02-04T11:39:35;4.80;;;1.42;;
29238;SDS011;16267;48.194;11.546;2023-02-04T11:42:41;8.20;;;2.47;;
29238;SDS011;16267;48.194;11.546;2023-02-04T11:45:20;2.78;;;1.05;;
29238;SDS011;16267;48.194;11.546;2023-02-04T11:47:49;7.68;;;1.25;;
29238;SDS011;16267;48.194;11.546;2023-02-04T11:50:18;2.75;;;0.98;;
29238;SDS011;16267;48.194;11.546;2023-02-04T11:52:55;3.53;;;1.13;;
29238;SDS011;16267;48.194;11.546;2023-02-04T11:55:23;2.75;;;1.30;;
29238;SDS011;16267;48.194;11.546;2023-02-04T11:57:52;3.42;;;0.95;;
29238;SDS011;16267;48.194;11.546;2023-02-04T12:00:24;2.28;;;0.90;;
29238;SDS011;16267;48.194;11.546;2023-02-04T12:03:02;5.28;;;1.40;;
29238;SDS011;16267;48.194;11.546;2023-02-04T12:05:37;3.47;;;1.10;;
29238;SDS011;16267;48.194;11.546;2023-02-04T12:08:12;2.50;;;1.00;;
29238;SDS011;16267;48.194;11.546;2023-02-04T12:13:44;2.75;;;1.10;;
29238;SDS011;16267;48.194;11.546;2023-02-04T12:16:17;3.10;;;1.02;;
29238;SDS011;16267;48.194;11.546;2023-02-04T12:18:43;2.50;;;0.90;;
29238;SDS011;16267;48.194;11.546;2023-02-04T12:21:08;2.90;;;0.85;;
29238;SDS011;16267;48.194;11.546;2023-02-04T12:23:34;4.03;;;1.30;;
29238;SDS011;16267;48.194;11.546;2023-02-04T12:26:06;2.33;;;0.95;;
29238;SDS011;16267;48.194;11.546;2023-02-04T12:28:33;3.70;;;1.50;;
29238;SDS011;16267;48.194;11.546;2023-02-04T12:30:59;3.50;;;1.13;;
29238;SDS011;16267;48.194;11.546;2023-02-04T12:33:25;3.47;;;1.38;;
29238;SDS011;16267;48.194;11.546;2023-02-04T12:35:51;5.03;;;1.30;;
29238;SDS011;16267;48.194;11.546;2023-02-04T12:38:17;2.35;;;1.17;;
29238;SDS011;16267;48.194;11.546;2023-02-04T12:40:43;3.35;;;1.20;;
29238;SDS011;16267;48.194;11.546;2023-02-04T12:43:09;3.50;;;1.25;;
29238;SDS011;16267;48.194;11.546;2023-02-04T12:45:35;3.50;;;1.23;;
29238;SDS011;16267;48.194;11.546;2023-02-04T12:48:02;3.10;;;1.10;;
29238;SDS011;16267;48.194;11.546;2023-02-04T12:50:28;2.92;;;1.20;;
29238;SDS011;16267;48.194;11.546;2023-02-04T12:52:55;2.75;;;1.30;;
29238;SDS011;16267;48.194;11.546;2023-02-04T12:55:23;5.97;;;1.45;;
29238;SDS011;16267;48.194;11.546;2023-02-04T12:57:52;3.03;;;1.45;;
29238;SDS011;16267;48.194;11.546;2023-02-04T13:00:20;3.25;;;1.80;;
29238;SDS011;16267;48.194;11.546;2023-02-04T13:02:46;2.92;;;1.27;;
29238;SDS011;16267;48.194;11.546;2023-02-04T13:05:13;3.92;;;1.48;;
29238;SDS011;16267;48.194;11.546;2023-02-04T13:07:40;2.65;;;1.17;;
29238;SDS011;16267;48.194;11.546;2023-02-04T13:10:07;2.72;;;1.33;;
29238;SDS011;16267;48.194;11.546;2023-02-04T13:12:35;5.03;;;2.58;;
29238;SDS011;16267;48.194;11.546;2023-02-04T13:15:01;3.83;;;2.00;;
29238;SDS011;16267;48.194;11.546;2023-02-04T13:17:27;3.60;;;1.90;;
29238;SDS011;16267;48.194;11.546;2023-02-04T13:19:53;5.75;;;2.80;;
29238;SDS011;16267;48.194;11.546;2023-02-04T13:22:19;4.10;;;1.42;;
29238;SDS011;16267;48.194;11.546;2023-02-04T13:24:45;3.85;;;1.95;;
29238;SDS011;16267;48.194;11.546;2023-02-04T13:27:11;3.53;;;1.63;;
29238;SDS011;16267;48.194;11.546;2023-02-04T13:29:37;2.08;;;1.42;;
29238;SDS011;16267;48.194;11.546;2023-02-04T13:32:03;3.13;;;1.10;;
29238;SDS011;16267;48.194;11.546;2023-02-04T13:34:29;4.53;;;1.10;;
29238;SDS011;16267;48.194;11.546;2023-02-04T13:36:54;2.60;;;1.23;;
29238;SDS011;16267;48.194;11.546;2023-02-04T13:39:21;3.35;;;1.00;;
29238;SDS011;16267;48.194;11.546;2023-02-04T13:41:46;2.72;;;1.10;;
29238;SDS011;16267;48.194;11.546;2023-02-04T13:44:12;2.83;;;1.50;;
29238;SDS011;16267;48.194;11.546;2023-02-04T13:46:41;5.90;;;1.60;;
29238;SDS011;16267;48.194;11.546;2023-02-04T13:49:06;0.90;;;0.77;;
29238;SDS011;16267;48.194;11.546;2023-02-04T13:51:33;4.43;;;2.55;;
29238;SDS011;16267;48.194;11.546;2023-02-04T13:53:59;3.15;;;2.00;;
29238;SDS011;16267;48.194;11.546;2023-02-04T13:56:27;4.60;;;2.00;;
29238;SDS011;16267;48.194;11.546;2023-02-04T13:58:53;2.90;;;1.75;;
29238;SDS011;16267;48.194;11.546;2023-02-04T14:01:19;3.90;;;1.42;;
29238;SDS011;16267;48.194;11.546;2023-02-04T14:03:44;3.90;;;1.20;;
29238;SDS011;16267;48.194;11.546;2023-02-04T14:06:11;2.92;;;1.40;;
29238;SDS011;16267;48.194;11.546;2023-02-04T14:08:46;2.63;;;1.13;;
29238;SDS011;16267;48.194;11.546;2023-02-04T14:11:12;3.45;;;0.95;;
29238;SDS011;16267;48.194;11.546;2023-02-04T14:13:38;2.40;;;1.20;;
29238;SDS011;16267;48.194;11.546;2023-02-04T14:16:04;1.90;;;0.93;;
29238;SDS011;16267;48.194;11.546;2023-02-04T14:18:31;2.45;;;1.35;;
29238;SDS011;16267;48.194;11.546;2023-02-04T14:20:57;6.85;;;1.40;;
29238;SDS011;16267;48.194;11.546;2023-02-04T14:23:22;2.75;;;1.20;;
29238;SDS011;16267;48.194;11.546;2023-02-04T14:25:48;2.45;;;1.10;;
29238;SDS011;16267;48.194;11.546;2023-02-04T14:28:14;4.93;;;1.52;;
29238;SDS011;16267;48.194;11.546;2023-02-04T14:30:40;4.68;;;1.40;;
29238;SDS011;16267;48.194;11.546;2023-02-04T14:33:08;4.30;;;1.73;;
29238;SDS011;16267;48.194;11.546;2023-02-04T14:35:44;3.30;;;1.70;;
29238;SDS011;16267;48.194;11.546;2023-02-04T14:38:10;3.40;;;1.23;;
29238;SDS011;16267;48.194;11.546;2023-02-04T14:40:45;6.63;;;3.30;;
29238;SDS011;16267;48.194;11.546;2023-02-04T14:43:11;3.42;;;2.17;;
29238;SDS011;16267;48.194;11.546;2023-02-04T14:45:38;10.55;;;3.47;;
29238;SDS011;16267;48.194;11.546;2023-02-04T14:48:05;6.97;;;2.38;;
29238;SDS011;16267;48.194;11.546;2023-02-04T14:50:34;8.63;;;3.58;;
29238;SDS011;16267;48.194;11.546;2023-02-04T14:53:00;7.00;;;2.75;;
29238;SDS011;16267;48.194;11.546;2023-02-04T14:55:26;7.28;;;2.53;;
29238;SDS011;16267;48.194;11.546;2023-02-04T14:57:52;4.40;;;1.67;;
29238;SDS011;16267;48.194;11.546;2023-02-04T15:00:19;4.35;;;1.45;;